Frederick, Maryland
Current Conditions -  °F | °C
As of 8:15 PM on Saturday 22 Nov 2014 (Local Time) from KFDK Reporting Station
Clear Clear  
Wind Chill: 40°   Ceiling: Unl
Heat Index: 45°   Visibility: 10mi
Dew Point: 14°   Wind: 9mph
Humidity: 29%   Direction: 190°S
Pressure: 30.27"   Gusts: NA
Location:  39.42°N, 77.41°W
Report Text: KFDK 230115Z AUTO 19008KT 10SM CLR 07/M10 A3027 RMK AO2
Loading
Personal Weather Stations






























Interactive Weather Map New forecast layout! Learn more

10-Day Weather Forecast

Advertisements
Track Severe Weather on mobile